Time;durP1;ratioP1;P1;durP2;ratioP2;P2;SDS_P1;SDS_P2;PMS_P1;PMS_P2;Temp;Humidity;BMP_temperature;BMP_pressure;BME280_temperature;BME280_humidity;BME280_pressure;Samples;Min_cycle;Max_cycle;Signal;HPM_P1;HPM_P2
2022/07/14 00:00:51;;;;;;;9.45;2.58;;;;;;;;;;5080050;28;20227;-19
2022/07/14 00:03:19;;;;;;;9.00;2.67;;;;;;;;;;5077870;28;20323;-19
2022/07/14 00:05:47;;;;;;;8.85;2.72;;;;;;;;;;5077529;28;20734;-19
2022/07/14 00:08:15;;;;;;;10.93;2.58;;;;;;;;;;5084880;28;20230;-19
2022/07/14 00:10:42;;;;;;;12.65;2.63;;;;;;;;;;5075440;28;20238;-18
2022/07/14 00:13:09;;;;;;;9.23;2.60;;;;;;;;;;5071633;28;20237;-18
2022/07/14 00:15:37;;;;;;;7.18;2.13;;;;;;;;;;5075436;28;20233;-19
2022/07/14 00:18:04;;;;;;;11.68;2.58;;;;;;;;;;5077671;28;20704;-18
2022/07/14 00:20:32;;;;;;;10.38;2.50;;;;;;;;;;5078485;28;20229;-20
2022/07/14 00:23:01;;;;;;;5.85;2.20;;;;;;;;;;5078816;28;20962;-19
2022/07/14 00:25:29;;;;;;;8.63;2.53;;;;;;;;;;5085056;28;20233;-19
2022/07/14 00:27:56;;;;;;;7.05;2.33;;;;;;;;;;5084902;28;20224;-19
2022/07/14 00:30:23;;;;;;;8.95;2.17;;;;;;;;;;5078983;28;20240;-19
2022/07/14 00:32:51;;;;;;;11.27;2.40;;;;;;;;;;5079062;28;20237;-19
2022/07/14 00:35:18;;;;;;;8.38;2.45;;;;;;;;;;5077448;28;20255;-19
2022/07/14 00:37:46;;;;;;;8.40;2.75;;;;;;;;;;5069339;28;21019;-19
2022/07/14 00:40:15;;;;;;;11.27;2.38;;;;;;;;;;5074131;28;20233;-19
2022/07/14 00:42:43;;;;;;;10.38;2.42;;;;;;;;;;5074306;28;20225;-18
2022/07/14 00:45:11;;;;;;;8.82;2.67;;;;;;;;;;5071857;28;20229;-19
2022/07/14 00:47:38;;;;;;;11.30;3.33;;;;;;;;;;5070925;28;20768;-19
2022/07/14 00:50:07;;;;;;;10.35;2.55;;;;;;;;;;5071877;28;20255;-19
2022/07/14 00:52:39;;;;;;;5.90;1.83;;;;;;;;;;5073310;28;20732;-19
2022/07/14 00:55:07;;;;;;;10.20;2.35;;;;;;;;;;5071571;28;20324;-19
2022/07/14 00:57:36;;;;;;;8.73;2.40;;;;;;;;;;5075391;28;20263;-19
2022/07/14 01:00:04;;;;;;;11.50;2.83;;;;;;;;;;5076686;28;20628;-19
2022/07/14 01:02:31;;;;;;;6.90;2.28;;;;;;;;;;5073068;28;20229;-19
2022/07/14 01:04:59;;;;;;;11.07;2.67;;;;;;;;;;5081093;28;21259;-19
2022/07/14 01:07:26;;;;;;;9.27;2.60;;;;;;;;;;5071413;28;20256;-19
2022/07/14 01:09:53;;;;;;;9.40;2.67;;;;;;;;;;5073736;28;20232;-19
2022/07/14 01:12:21;;;;;;;9.93;2.88;;;;;;;;;;5070165;28;20762;-19
2022/07/14 01:14:49;;;;;;;10.77;2.50;;;;;;;;;;5073078;28;20230;-19
2022/07/14 01:17:17;;;;;;;12.68;3.00;;;;;;;;;;5071004;28;20233;-19
2022/07/14 01:19:47;;;;;;;10.43;2.75;;;;;;;;;;5069593;28;20231;-19
2022/07/14 01:22:16;;;;;;;9.07;2.58;;;;;;;;;;5072075;28;20248;-19
2022/07/14 01:24:43;;;;;;;9.43;2.60;;;;;;;;;;5074298;28;20230;-19
2022/07/14 01:27:11;;;;;;;9.43;2.45;;;;;;;;;;5071830;28;20224;-19
2022/07/14 01:29:38;;;;;;;11.35;2.70;;;;;;;;;;5077116;28;20324;-18
2022/07/14 01:32:06;;;;;;;8.10;2.58;;;;;;;;;;5072780;28;20341;-18
2022/07/14 01:34:33;;;;;;;9.07;2.47;;;;;;;;;;5070218;28;20237;-19
2022/07/14 01:37:01;;;;;;;7.95;2.35;;;;;;;;;;5074550;28;20683;-18
2022/07/14 01:39:29;;;;;;;9.90;2.38;;;;;;;;;;5072209;28;21073;-19
2022/07/14 01:41:57;;;;;;;9.30;3.00;;;;;;;;;;5070465;28;20627;-19
2022/07/14 01:44:24;;;;;;;10.30;2.55;;;;;;;;;;5070674;28;21018;-19
2022/07/14 01:46:51;;;;;;;6.30;2.20;;;;;;;;;;5070741;28;20248;-19
2022/07/14 01:49:19;;;;;;;8.27;2.53;;;;;;;;;;5071497;28;20963;-19
2022/07/14 01:51:47;;;;;;;8.70;2.40;;;;;;;;;;5076798;28;20240;-19
2022/07/14 01:54:14;;;;;;;8.20;2.20;;;;;;;;;;5074660;28;20240;-19
2022/07/14 01:56:43;;;;;;;8.13;2.42;;;;;;;;;;5083192;28;20696;-19
2022/07/14 01:59:10;;;;;;;9.38;2.38;;;;;;;;;;5076207;28;20700;-19
2022/07/14 02:01:40;;;;;;;8.80;2.70;;;;;;;;;;5073789;28;20237;-19
2022/07/14 02:04:10;;;;;;;8.23;2.25;;;;;;;;;;5072958;28;20237;-19
2022/07/14 02:06:38;;;;;;;5.05;2.15;;;;;;;;;;5078554;28;20229;-19
2022/07/14 02:09:05;;;;;;;8.52;2.53;;;;;;;;;;5077451;28;20324;-19
2022/07/14 02:14:19;;;;;;;6.78;2.22;;;;;;;;;;5073045;28;20233;-19
2022/07/14 02:16:46;;;;;;;7.75;2.53;;;;;;;;;;5075350;28;20787;-18
2022/07/14 02:19:13;;;;;;;9.52;2.20;;;;;;;;;;5075133;28;20718;-18
2022/07/14 02:21:41;;;;;;;8.95;2.50;;;;;;;;;;5090851;22;20236;-17
2022/07/14 02:24:09;;;;;;;9.80;2.38;;;;;;;;;;5093421;28;20229;-17
2022/07/14 02:26:37;;;;;;;7.57;2.58;;;;;;;;;;5093708;28;20328;-17
2022/07/14 02:29:05;;;;;;;6.03;2.30;;;;;;;;;;5091365;28;20238;-17
2022/07/14 02:31:34;;;;;;;10.88;2.28;;;;;;;;;;5092382;28;20239;-17
2022/07/14 02:34:02;;;;;;;6.93;2.13;;;;;;;;;;5092025;28;20318;-17
2022/07/14 02:36:29;;;;;;;8.43;2.33;;;;;;;;;;5093692;28;20319;-17
2022/07/14 02:38:56;;;;;;;7.50;2.22;;;;;;;;;;5090785;28;20229;-17
2022/07/14 02:41:24;;;;;;;9.55;2.70;;;;;;;;;;5089828;28;20225;-17
2022/07/14 02:43:51;;;;;;;9.05;2.35;;;;;;;;;;5087711;28;20232;-17
2022/07/14 02:46:19;;;;;;;8.02;2.33;;;;;;;;;;5087634;28;20304;-17
2022/07/14 02:48:48;;;;;;;9.18;2.25;;;;;;;;;;5091771;28;20236;-17
2022/07/14 02:51:15;;;;;;;10.05;2.00;;;;;;;;;;5091273;28;20255;-17
2022/07/14 02:53:42;;;;;;;8.82;2.40;;;;;;;;;;5090793;28;20283;-17
2022/07/14 02:56:10;;;;;;;6.35;2.40;;;;;;;;;;5091578;28;20320;-17
2022/07/14 02:58:37;;;;;;;9.68;2.60;;;;;;;;;;5092650;28;21080;-17
2022/07/14 03:01:05;;;;;;;6.78;2.05;;;;;;;;;;5089149;28;20231;-17
2022/07/14 03:03:34;;;;;;;8.82;2.60;;;;;;;;;;5092993;28;20233;-17
2022/07/14 03:06:08;;;;;;;10.30;2.28;;;;;;;;;;5088254;28;20691;-17
2022/07/14 03:08:35;;;;;;;8.60;2.30;;;;;;;;;;5091668;28;20235;-17
2022/07/14 03:11:03;;;;;;;8.45;1.90;;;;;;;;;;5089296;28;20229;-17
2022/07/14 03:13:31;;;;;;;8.90;2.42;;;;;;;;;;5092156;28;20711;-17
2022/07/14 03:15:59;;;;;;;9.82;2.60;;;;;;;;;;5090658;28;20328;-17
2022/07/14 03:18:26;;;;;;;6.55;2.08;;;;;;;;;;5092057;28;20239;-17
2022/07/14 03:20:54;;;;;;;6.68;2.65;;;;;;;;;;5091816;28;20231;-17
2022/07/14 03:23:22;;;;;;;7.78;2.70;;;;;;;;;;5088814;28;20251;-17
2022/07/14 03:25:50;;;;;;;8.40;2.33;;;;;;;;;;5092236;28;20995;-17
2022/07/14 03:28:17;;;;;;;6.95;2.42;;;;;;;;;;5090452;28;20320;-17
2022/07/14 03:30:44;;;;;;;6.93;2.20;;;;;;;;;;5089212;28;20316;-17
2022/07/14 03:33:12;;;;;;;7.47;2.83;;;;;;;;;;5091026;28;20303;-17
2022/07/14 03:35:39;;;;;;;8.50;2.47;;;;;;;;;;5091613;28;20276;-17
2022/07/14 03:38:07;;;;;;;9.07;2.33;;;;;;;;;;5090845;28;20233;-17
2022/07/14 03:40:56;;;;;;;9.75;2.28;;;;;;;;;;5085964;28;20232;-17
2022/07/14 03:43:23;;;;;;;6.90;2.47;;;;;;;;;;5089127;28;20341;-17
2022/07/14 03:45:50;;;;;;;6.93;2.08;;;;;;;;;;5091538;28;20229;-17
2022/07/14 03:48:19;;;;;;;6.53;2.38;;;;;;;;;;5090964;28;20327;-17
2022/07/14 03:50:46;;;;;;;9.23;2.75;;;;;;;;;;5091549;28;20232;-17
2022/07/14 03:53:13;;;;;;;7.97;2.30;;;;;;;;;;5091566;28;20235;-17
2022/07/14 03:55:42;;;;;;;5.55;2.20;;;;;;;;;;5091215;28;20371;-17
2022/07/14 03:58:19;;;;;;;6.78;2.28;;;;;;;;;;5090526;28;20232;-17
2022/07/14 04:00:46;;;;;;;6.47;2.22;;;;;;;;;;5086504;28;20379;-17
2022/07/14 04:03:14;;;;;;;8.18;2.95;;;;;;;;;;5091615;28;20232;-17
2022/07/14 04:05:41;;;;;;;7.10;2.28;;;;;;;;;;5091363;28;20259;-17
2022/07/14 04:08:09;;;;;;;6.75;1.92;;;;;;;;;;5088934;28;20227;-17
2022/07/14 04:10:36;;;;;;;8.57;2.45;;;;;;;;;;5090687;28;20320;-17
2022/07/14 04:13:04;;;;;;;7.32;2.30;;;;;;;;;;5090122;28;20228;-17
2022/07/14 04:15:32;;;;;;;8.52;2.40;;;;;;;;;;5090735;28;20371;-17
2022/07/14 04:18:00;;;;;;;10.50;2.83;;;;;;;;;;5088518;28;20231;-17
2022/07/14 04:20:27;;;;;;;6.85;2.30;;;;;;;;;;5090042;28;20229;-17
2022/07/14 04:22:55;;;;;;;10.63;2.85;;;;;;;;;;5080129;28;20303;-17
2022/07/14 04:25:22;;;;;;;6.72;2.30;;;;;;;;;;5090741;28;20267;-17
2022/07/14 04:27:49;;;;;;;7.80;2.60;;;;;;;;;;5091008;28;20987;-17
2022/07/14 04:30:17;;;;;;;9.77;2.20;;;;;;;;;;5090972;28;20233;-17
2022/07/14 04:32:46;;;;;;;8.77;2.63;;;;;;;;;;5090269;28;20229;-17
2022/07/14 04:35:13;;;;;;;7.80;2.55;;;;;;;;;;5090703;28;20252;-17
2022/07/14 04:37:40;;;;;;;9.00;2.53;;;;;;;;;;5090808;28;20327;-17
2022/07/14 04:40:08;;;;;;;7.70;2.13;;;;;;;;;;5091048;28;20347;-17
2022/07/14 04:42:36;;;;;;;7.15;2.78;;;;;;;;;;5088080;28;21141;-17
2022/07/14 04:45:03;;;;;;;6.00;2.10;;;;;;;;;;5090081;28;21058;-17
2022/07/14 04:47:31;;;;;;;7.85;2.50;;;;;;;;;;5089715;28;20363;-17
2022/07/14 04:52:45;;;;;;;8.63;1.98;;;;;;;;;;5088597;28;20229;-17
2022/07/14 04:55:13;;;;;;;5.78;1.90;;;;;;;;;;5089458;28;20332;-17
2022/07/14 04:57:40;;;;;;;6.68;1.85;;;;;;;;;;5089064;28;20233;-17
2022/07/14 05:00:08;;;;;;;5.88;2.20;;;;;;;;;;5089531;28;20225;-17
2022/07/14 05:02:36;;;;;;;6.68;1.98;;;;;;;;;;5086806;28;20328;-17
2022/07/14 05:05:06;;;;;;;5.45;1.90;;;;;;;;;;5090231;28;20228;-16
2022/07/14 05:07:34;;;;;;;7.85;2.25;;;;;;;;;;5090201;28;20624;-16
2022/07/14 05:10:01;;;;;;;5.03;2.10;;;;;;;;;;5085913;28;20280;-16
2022/07/14 05:12:29;;;;;;;6.53;2.10;;;;;;;;;;5087786;28;20253;-16
2022/07/14 05:14:57;;;;;;;6.60;2.47;;;;;;;;;;5090099;28;20263;-16
2022/07/14 05:17:24;;;;;;;4.50;1.60;;;;;;;;;;5089532;28;20691;-16
2022/07/14 05:19:53;;;;;;;3.92;1.77;;;;;;;;;;5089805;28;20224;-16
2022/07/14 05:22:21;;;;;;;5.18;1.63;;;;;;;;;;5089467;28;20636;-16
2022/07/14 05:24:49;;;;;;;5.88;1.85;;;;;;;;;;5092886;28;20619;-16
2022/07/14 05:27:16;;;;;;;5.97;1.55;;;;;;;;;;5092751;28;20765;-16
2022/07/14 05:29:43;;;;;;;3.47;1.48;;;;;;;;;;5093747;28;20322;-16
2022/07/14 05:32:11;;;;;;;5.78;1.88;;;;;;;;;;5093131;28;21017;-16
2022/07/14 05:34:42;;;;;;;5.60;2.00;;;;;;;;;;5090105;28;20704;-16
2022/07/14 05:37:10;;;;;;;3.40;1.40;;;;;;;;;;5093023;28;20715;-16
2022/07/14 05:39:38;;;;;;;4.15;1.67;;;;;;;;;;5092849;28;21058;-16
2022/07/14 05:42:06;;;;;;;5.13;1.88;;;;;;;;;;5092981;28;20951;-16
2022/07/14 05:44:34;;;;;;;5.32;1.60;;;;;;;;;;5092978;28;20231;-16
2022/07/14 05:47:02;;;;;;;5.40;1.77;;;;;;;;;;5089896;28;20263;-16
2022/07/14 05:49:29;;;;;;;5.32;1.77;;;;;;;;;;5091242;28;20235;-16
2022/07/14 05:51:57;;;;;;;6.00;1.35;;;;;;;;;;5092152;28;20312;-16
2022/07/14 05:54:24;;;;;;;6.93;1.50;;;;;;;;;;5092554;28;20224;-16
2022/07/14 05:56:53;;;;;;;5.38;1.50;;;;;;;;;;5092662;28;20249;-16
2022/07/14 05:59:20;;;;;;;3.72;1.42;;;;;;;;;;5092524;28;20964;-16
2022/07/14 06:02:07;;;;;;;14.63;2.40;;;;;;;;;;5089929;28;20408;-16
2022/07/14 06:04:35;;;;;;;11.07;1.70;;;;;;;;;;5092995;28;20224;-16
2022/07/14 06:07:02;;;;;;;6.72;1.50;;;;;;;;;;5091735;28;20229;-17
2022/07/14 06:09:30;;;;;;;5.85;1.70;;;;;;;;;;5087604;28;20718;-16
2022/07/14 06:11:59;;;;;;;11.80;1.70;;;;;;;;;;5092081;28;20726;-16
2022/07/14 06:14:27;;;;;;;10.90;2.28;;;;;;;;;;5091605;28;20229;-16
2022/07/14 06:16:54;;;;;;;4.13;1.45;;;;;;;;;;5090756;28;20297;-16
2022/07/14 06:19:21;;;;;;;5.95;1.92;;;;;;;;;;5081851;28;20233;-16
2022/07/14 06:21:49;;;;;;;4.65;1.40;;;;;;;;;;5090352;28;20241;-16
2022/07/14 06:24:16;;;;;;;6.93;2.42;;;;;;;;;;5091939;28;20228;-16
2022/07/14 06:26:44;;;;;;;6.35;1.90;;;;;;;;;;5092308;28;20323;-16
2022/07/14 06:29:13;;;;;;;8.50;2.08;;;;;;;;;;5091454;28;20229;-16
2022/07/14 06:31:40;;;;;;;9.32;2.30;;;;;;;;;;5078159;28;20252;-16
2022/07/14 06:34:08;;;;;;;7.32;2.22;;;;;;;;;;5091939;28;20229;-16
2022/07/14 06:36:35;;;;;;;6.28;1.48;;;;;;;;;;5091446;28;20329;-16
2022/07/14 06:39:02;;;;;;;9.77;2.30;;;;;;;;;;5087202;28;20320;-16
2022/07/14 06:41:30;;;;;;;5.35;2.13;;;;;;;;;;5085723;28;20784;-16
2022/07/14 06:43:57;;;;;;;13.45;1.95;;;;;;;;;;5090525;28;20224;-16
2022/07/14 06:46:27;;;;;;;15.77;2.28;;;;;;;;;;5091959;28;20237;-16
2022/07/14 06:48:55;;;;;;;6.90;1.80;;;;;;;;;;5092702;28;20260;-16
2022/07/14 06:51:22;;;;;;;7.78;1.80;;;;;;;;;;5082481;28;20267;-16
2022/07/14 06:53:50;;;;;;;12.23;1.80;;;;;;;;;;5091177;28;20225;-16
2022/07/14 06:56:17;;;;;;;12.05;2.20;;;;;;;;;;5082626;28;20770;-16
2022/07/14 06:58:45;;;;;;;9.43;2.05;;;;;;;;;;5089239;28;20251;-16
2022/07/14 07:01:12;;;;;;;9.45;2.08;;;;;;;;;;5092975;28;20229;-16
2022/07/14 07:03:41;;;;;;;6.53;2.10;;;;;;;;;;5091040;28;20298;-16
2022/07/14 07:08:54;;;;;;;12.45;2.10;;;;;;;;;;5086938;28;20260;-16
2022/07/14 07:11:21;;;;;;;9.50;2.20;;;;;;;;;;5088990;28;20319;-16
2022/07/14 07:13:48;;;;;;;6.75;1.70;;;;;;;;;;5079701;28;20935;-16
2022/07/14 07:16:16;;;;;;;6.90;1.77;;;;;;;;;;5091299;28;20328;-16
2022/07/14 07:18:45;;;;;;;7.10;1.83;;;;;;;;;;5091157;28;20232;-17
2022/07/14 07:21:14;;;;;;;9.00;2.22;;;;;;;;;;5091948;28;20229;-17
2022/07/14 07:23:44;;;;;;;7.88;2.08;;;;;;;;;;5092591;28;20296;-17
2022/07/14 07:26:12;;;;;;;9.20;1.83;;;;;;;;;;5092467;28;20228;-17
2022/07/14 07:28:40;;;;;;;7.32;2.00;;;;;;;;;;5091536;28;20233;-17
2022/07/14 07:31:07;;;;;;;14.50;2.28;;;;;;;;;;5090654;28;20357;-17
2022/07/14 07:33:35;;;;;;;8.82;1.83;;;;;;;;;;5091849;28;20229;-17
2022/07/14 07:36:04;;;;;;;7.57;1.95;;;;;;;;;;5091542;28;20339;-17
2022/07/14 07:38:32;;;;;;;8.60;1.80;;;;;;;;;;5091431;28;20302;-17
2022/07/14 07:41:01;;;;;;;6.93;1.98;;;;;;;;;;5090313;28;20225;-17
2022/07/14 07:43:28;;;;;;;5.70;1.55;;;;;;;;;;5091169;28;20243;-17
2022/07/14 07:45:55;;;;;;;5.72;2.03;;;;;;;;;;5090863;28;20228;-17
2022/07/14 07:48:23;;;;;;;9.77;2.00;;;;;;;;;;5091653;28;20236;-17
2022/07/14 07:50:50;;;;;;;6.22;1.52;;;;;;;;;;5087185;28;20323;-17
2022/07/14 07:53:19;;;;;;;7.10;1.80;;;;;;;;;;5081343;28;20448;-17
2022/07/14 07:55:47;;;;;;;4.93;1.80;;;;;;;;;;5085260;28;20273;-17
2022/07/14 07:58:14;;;;;;;6.47;1.75;;;;;;;;;;5085949;28;20700;-17
2022/07/14 08:00:41;;;;;;;7.22;1.80;;;;;;;;;;5088456;28;20249;-17
2022/07/14 08:03:09;;;;;;;7.25;1.90;;;;;;;;;;5085169;28;20319;-17
2022/07/14 08:05:37;;;;;;;4.25;1.35;;;;;;;;;;5090417;28;20303;-17
2022/07/14 08:08:22;;;;;;;5.63;1.70;;;;;;;;;;5089675;28;20307;-17
2022/07/14 08:10:50;;;;;;;6.90;1.48;;;;;;;;;;5090347;28;20229;-17
2022/07/14 08:13:17;;;;;;;8.32;1.75;;;;;;;;;;5084087;28;20225;-17
2022/07/14 08:15:44;;;;;;;6.45;1.65;;;;;;;;;;5085698;28;20703;-17
2022/07/14 08:18:12;;;;;;;5.22;1.33;;;;;;;;;;5082444;28;20238;-17
2022/07/14 08:20:39;;;;;;;8.70;1.75;;;;;;;;;;5090836;28;20221;-17
2022/07/14 08:23:07;;;;;;;4.93;1.52;;;;;;;;;;5089230;28;20291;-17
2022/07/14 08:25:36;;;;;;;7.05;1.67;;;;;;;;;;5078201;28;20264;-17
2022/07/14 08:28:03;;;;;;;6.95;1.30;;;;;;;;;;5090596;28;20225;-17
2022/07/14 08:30:30;;;;;;;11.45;1.92;;;;;;;;;;5086831;28;20229;-17
2022/07/14 08:32:58;;;;;;;7.55;1.13;;;;;;;;;;5088917;28;20235;-17
2022/07/14 08:35:26;;;;;;;4.60;1.23;;;;;;;;;;5080700;28;21118;-17
2022/07/14 08:37:53;;;;;;;8.52;1.40;;;;;;;;;;5087606;28;20758;-17
2022/07/14 08:40:21;;;;;;;7.85;1.23;;;;;;;;;;5090915;28;20233;-17
2022/07/14 08:42:51;;;;;;;3.70;1.15;;;;;;;;;;5091532;28;20233;-17
2022/07/14 08:45:20;;;;;;;2.67;0.80;;;;;;;;;;5091199;28;20312;-17
2022/07/14 08:47:47;;;;;;;5.10;1.40;;;;;;;;;;5097273;28;20225;-16
2022/07/14 08:50:16;;;;;;;4.85;1.33;;;;;;;;;;5085408;28;20707;-17
2022/07/14 08:52:44;;;;;;;6.03;1.55;;;;;;;;;;5090943;28;20327;-17
2022/07/14 08:55:12;;;;;;;8.85;1.10;;;;;;;;;;5075330;28;20718;-17
2022/07/14 08:57:40;;;;;;;3.67;0.90;;;;;;;;;;5089244;28;20341;-17
2022/07/14 09:00:10;;;;;;;6.05;1.17;;;;;;;;;;5089971;28;20256;-17
2022/07/14 09:02:38;;;;;;;5.30;1.48;;;;;;;;;;5080411;28;20229;-17
2022/07/14 09:05:25;;;;;;;6.32;1.50;;;;;;;;;;5070458;28;20229;-17
2022/07/14 09:07:54;;;;;;;5.18;1.30;;;;;;;;;;5070227;28;20726;-17
2022/07/14 09:10:23;;;;;;;6.97;1.40;;;;;;;;;;5085237;28;20331;-17
2022/07/14 09:12:51;;;;;;;5.25;1.40;;;;;;;;;;5090182;28;20229;-17
2022/07/14 09:18:12;;;;;;;5.15;1.33;;;;;;;;;;5088881;28;20243;-17
2022/07/14 09:20:39;;;;;;;4.28;0.95;;;;;;;;;;5078466;28;20233;-17
2022/07/14 09:23:07;;;;;;;6.00;1.42;;;;;;;;;;5090183;28;20267;-17
2022/07/14 09:25:38;;;;;;;6.05;1.15;;;;;;;;;;5082950;28;20252;-17
2022/07/14 09:28:06;;;;;;;4.90;1.35;;;;;;;;;;5084290;28;20225;-17
2022/07/14 09:30:35;;;;;;;4.53;0.88;;;;;;;;;;5085091;28;20243;-17
2022/07/14 09:33:03;;;;;;;2.88;1.10;;;;;;;;;;5083196;28;20256;-17
2022/07/14 09:35:38;;;;;;;10.00;1.30;;;;;;;;;;5090459;28;20995;-17
2022/07/14 09:38:13;;;;;;;3.20;0.85;;;;;;;;;;5085581;28;20237;-17
2022/07/14 09:40:41;;;;;;;3.78;1.23;;;;;;;;;;5084930;28;20229;-17
2022/07/14 09:43:12;;;;;;;4.07;1.10;;;;;;;;;;5081943;28;20325;-17
2022/07/14 09:45:42;;;;;;;5.13;0.90;;;;;;;;;;5089266;28;20235;-16
2022/07/14 09:48:18;;;;;;;5.60;1.02;;;;;;;;;;5090062;28;20231;-17
2022/07/14 09:50:45;;;;;;;3.63;0.90;;;;;;;;;;5085483;28;20232;-17
2022/07/14 09:53:14;;;;;;;2.95;0.95;;;;;;;;;;5089710;28;20225;-17
2022/07/14 09:55:42;;;;;;;3.35;1.20;;;;;;;;;;5090135;28;20227;-17
2022/07/14 09:58:09;;;;;;;5.10;1.27;;;;;;;;;;5090388;28;20245;-17
2022/07/14 10:00:37;;;;;;;5.10;1.30;;;;;;;;;;5087023;28;20610;-17
2022/07/14 10:03:05;;;;;;;3.38;1.10;;;;;;;;;;5096586;28;20236;-17
2022/07/14 10:05:33;;;;;;;4.72;1.30;;;;;;;;;;5096214;28;20280;-17
2022/07/14 10:08:02;;;;;;;3.30;1.02;;;;;;;;;;5090131;28;20262;-17
2022/07/14 10:10:29;;;;;;;4.07;0.90;;;;;;;;;;5085775;28;20240;-17
2022/07/14 10:12:57;;;;;;;3.25;0.90;;;;;;;;;;5087650;28;21068;-17
2022/07/14 10:15:24;;;;;;;3.22;1.00;;;;;;;;;;5091758;28;20221;-17
2022/07/14 10:17:52;;;;;;;3.25;0.90;;;;;;;;;;5093505;28;20286;-17
2022/07/14 10:20:21;;;;;;;4.82;1.13;;;;;;;;;;5093617;28;20240;-17
2022/07/14 10:22:48;;;;;;;4.68;1.15;;;;;;;;;;5093003;28;20298;-17
2022/07/14 10:25:16;;;;;;;4.15;1.15;;;;;;;;;;5088233;28;20316;-17
2022/07/14 10:27:43;;;;;;;6.53;1.30;;;;;;;;;;5093285;28;20229;-17
2022/07/14 10:30:11;;;;;;;3.53;1.00;;;;;;;;;;5081248;28;20228;-17
2022/07/14 10:32:40;;;;;;;2.67;1.00;;;;;;;;;;5082315;28;20231;-17
2022/07/14 10:35:12;;;;;;;3.88;1.30;;;;;;;;;;5078518;28;20230;-17
2022/07/14 10:37:42;;;;;;;4.80;1.17;;;;;;;;;;5081398;28;21109;-17
2022/07/14 10:40:11;;;;;;;3.90;1.05;;;;;;;;;;5093061;28;20300;-16
2022/07/14 10:42:41;;;;;;;4.88;1.30;;;;;;;;;;5085738;28;21105;-17
2022/07/14 10:45:09;;;;;;;6.40;1.33;;;;;;;;;;5086854;28;20235;-17
2022/07/14 10:47:43;;;;;;;3.78;1.20;;;;;;;;;;5092012;28;20312;-17
2022/07/14 10:50:11;;;;;;;3.40;0.80;;;;;;;;;;5092240;28;20228;-17
2022/07/14 10:52:39;;;;;;;7.85;1.38;;;;;;;;;;5091849;28;20228;-17
2022/07/14 10:55:14;;;;;;;4.30;1.20;;;;;;;;;;5093189;28;20225;-17
2022/07/14 10:57:57;;;;;;;6.28;1.27;;;;;;;;;;5092017;28;20242;-17
2022/07/14 11:00:55;;;;;;;4.72;1.20;;;;;;;;;;5080693;28;20231;-17
2022/07/14 11:03:24;;;;;;;3.53;1.00;;;;;;;;;;5092713;28;20324;-17
2022/07/14 11:06:10;;;;;;;5.38;1.35;;;;;;;;;;5092905;28;20256;-17
2022/07/14 11:09:03;;;;;;;3.30;1.00;;;;;;;;;;5091734;28;20221;-17
2022/07/14 11:11:31;;;;;;;4.10;1.33;;;;;;;;;;5080679;28;20315;-17
2022/07/14 11:14:12;;;;;;;3.78;0.90;;;;;;;;;;5092717;28;20319;-17
2022/07/14 11:16:55;;;;;;;3.17;0.98;;;;;;;;;;5078186;28;20220;-17
2022/07/14 11:19:23;;;;;;;6.93;1.00;;;;;;;;;;5080187;28;20331;-17
2022/07/14 11:22:10;;;;;;;3.72;1.08;;;;;;;;;;5089177;28;20707;-17
2022/07/14 11:24:44;;;;;;;5.30;1.00;;;;;;;;;;5082441;28;20243;-17
2022/07/14 11:27:29;;;;;;;3.70;0.93;;;;;;;;;;5089500;28;20331;-17
2022/07/14 11:29:56;;;;;;;4.20;0.93;;;;;;;;;;5087037;28;20324;-18
2022/07/14 11:32:30;;;;;;;3.50;1.00;;;;;;;;;;5086803;28;20325;-18
2022/07/14 11:37:56;;;;;;;4.40;1.13;;;;;;;;;;5078413;28;20688;-18
2022/07/14 11:40:40;;;;;;;4.13;1.40;;;;;;;;;;5082183;28;21179;-18
2022/07/14 11:43:31;;;;;;;4.97;1.20;;;;;;;;;;5082114;28;20235;-18
2022/07/14 11:46:00;;;;;;;2.65;1.05;;;;;;;;;;5086618;28;20229;-18
2022/07/14 11:48:28;;;;;;;5.15;1.30;;;;;;;;;;5083359;28;20237;-18
2022/07/14 11:51:01;;;;;;;4.45;1.10;;;;;;;;;;5081771;28;20232;-18
2022/07/14 11:53:28;;;;;;;2.80;1.00;;;;;;;;;;5082616;28;20232;-18
2022/07/14 11:55:56;;;;;;;2.38;0.88;;;;;;;;;;5088381;28;20259;-18
2022/07/14 11:58:23;;;;;;;3.17;1.30;;;;;;;;;;5085422;28;20241;-18
2022/07/14 12:00:54;;;;;;;3.50;1.20;;;;;;;;;;5081150;28;20327;-18
2022/07/14 12:03:25;;;;;;;4.40;1.20;;;;;;;;;;5072245;28;20883;-18
2022/07/14 12:05:53;;;;;;;3.08;1.25;;;;;;;;;;5086312;28;20319;-18
2022/07/14 12:08:24;;;;;;;4.72;1.13;;;;;;;;;;5088370;28;20232;-18
2022/07/14 12:10:51;;;;;;;2.30;0.90;;;;;;;;;;5082835;28;20225;-18
2022/07/14 12:13:19;;;;;;;2.85;0.90;;;;;;;;;;5087498;28;20233;-18
2022/07/14 12:15:46;;;;;;;2.65;0.80;;;;;;;;;;5084427;28;20666;-18
2022/07/14 12:18:14;;;;;;;4.47;1.45;;;;;;;;;;5083761;28;20240;-18
2022/07/14 12:20:44;;;;;;;3.70;1.20;;;;;;;;;;5083536;28;20282;-18
2022/07/14 12:23:11;;;;;;;4.05;0.93;;;;;;;;;;5088707;28;20262;-18
2022/07/14 12:25:39;;;;;;;4.35;1.13;;;;;;;;;;5086545;28;20343;-18
2022/07/14 12:28:07;;;;;;;3.13;0.90;;;;;;;;;;5089772;28;20268;-18
2022/07/14 12:30:42;;;;;;;5.07;1.23;;;;;;;;;;5085175;28;20287;-17
2022/07/14 12:33:11;;;;;;;3.05;0.90;;;;;;;;;;5084053;28;20751;-18
2022/07/14 12:35:38;;;;;;;1.75;0.90;;;;;;;;;;5086623;28;20229;-18
2022/07/14 12:38:07;;;;;;;3.83;1.00;;;;;;;;;;5081223;28;20316;-18
2022/07/14 12:40:43;;;;;;;3.47;1.17;;;;;;;;;;5085456;28;20244;-18
2022/07/14 12:43:19;;;;;;;2.53;1.20;;;;;;;;;;5079524;28;20331;-17
2022/07/14 12:46:02;;;;;;;3.60;1.00;;;;;;;;;;5086503;28;20248;-18
2022/07/14 12:48:30;;;;;;;3.78;1.20;;;;;;;;;;5088530;28;20319;-18
2022/07/14 12:50:58;;;;;;;3.85;1.00;;;;;;;;;;5091243;28;20308;-18
2022/07/14 12:53:26;;;;;;;2.20;0.93;;;;;;;;;;5091129;28;20225;-18
2022/07/14 12:55:59;;;;;;;4.10;1.10;;;;;;;;;;5076931;28;20262;-18
2022/07/14 12:58:27;;;;;;;1.70;0.93;;;;;;;;;;5090333;28;20235;-18
2022/07/14 13:00:54;;;;;;;2.00;0.93;;;;;;;;;;5087810;28;20871;-18
2022/07/14 13:03:22;;;;;;;3.95;0.98;;;;;;;;;;5090796;28;20234;-18
2022/07/14 13:05:52;;;;;;;2.40;1.05;;;;;;;;;;5090654;28;20247;-18
2022/07/14 13:08:43;;;;;;;3.22;1.00;;;;;;;;;;5090086;28;20774;-17
2022/07/14 13:11:12;;;;;;;3.25;0.90;;;;;;;;;;5073641;28;20228;-17
2022/07/14 13:13:40;;;;;;;5.95;1.00;;;;;;;;;;5090837;28;20315;-18
2022/07/14 13:16:15;;;;;;;4.50;1.08;;;;;;;;;;5090972;28;20327;-17
2022/07/14 13:19:01;;;;;;;3.10;1.10;;;;;;;;;;5077138;28;20277;-18
2022/07/14 13:21:56;;;;;;;5.95;1.05;;;;;;;;;;5089977;28;21130;-18
2022/07/14 13:24:24;;;;;;;7.40;1.10;;;;;;;;;;5063154;28;20235;-18
2022/07/14 13:27:00;;;;;;;5.78;1.10;;;;;;;;;;5084649;28;21100;-18
2022/07/14 13:29:27;;;;;;;3.30;0.95;;;;;;;;;;5083500;28;20332;-17
2022/07/14 13:31:54;;;;;;;3.50;0.88;;;;;;;;;;5083688;28;21068;-17
2022/07/14 13:34:22;;;;;;;5.07;1.10;;;;;;;;;;5086294;28;20228;-18
2022/07/14 13:36:50;;;;;;;4.35;1.00;;;;;;;;;;5088539;28;20739;-18
2022/07/14 13:39:17;;;;;;;3.75;0.80;;;;;;;;;;5089798;28;20646;-18
2022/07/14 13:41:53;;;;;;;3.10;1.05;;;;;;;;;;5090271;28;20225;-18
2022/07/14 13:44:21;;;;;;;2.22;1.10;;;;;;;;;;5086824;28;20235;-18
2022/07/14 13:46:49;;;;;;;2.63;1.15;;;;;;;;;;5088020;28;20283;-18
2022/07/14 13:49:17;;;;;;;4.88;1.15;;;;;;;;;;5081363;28;20282;-17
2022/07/14 13:54:29;;;;;;;4.80;1.10;;;;;;;;;;5090159;28;20314;-18
2022/07/14 13:56:57;;;;;;;3.72;1.15;;;;;;;;;;5089995;28;20236;-18
2022/07/14 13:59:25;;;;;;;3.28;0.85;;;;;;;;;;5087589;28;20229;-17
2022/07/14 14:01:53;;;;;;;4.55;1.10;;;;;;;;;;5083384;28;20221;-17
2022/07/14 14:04:21;;;;;;;2.15;0.88;;;;;;;;;;5082548;28;20241;-18
2022/07/14 14:06:50;;;;;;;1.65;0.82;;;;;;;;;;5092295;28;20241;-18
2022/07/14 14:09:18;;;;;;;1.33;0.75;;;;;;;;;;5087441;28;20314;-17
2022/07/14 14:11:46;;;;;;;2.10;0.70;;;;;;;;;;5085094;28;20237;-18
2022/07/14 14:14:13;;;;;;;3.28;0.90;;;;;;;;;;5081362;28;20274;-18
2022/07/14 14:16:42;;;;;;;1.85;0.82;;;;;;;;;;5087057;28;21915;-17
2022/07/14 14:19:18;;;;;;;9.27;1.33;;;;;;;;;;5091505;28;20268;-18
2022/07/14 14:21:48;;;;;;;2.65;1.00;;;;;;;;;;5092371;28;20727;-18
2022/07/14 14:24:16;;;;;;;1.73;0.73;;;;;;;;;;5092245;28;20241;-18
2022/07/14 14:26:44;;;;;;;2.90;0.75;;;;;;;;;;5088680;28;20225;-18
2022/07/14 14:29:11;;;;;;;2.10;0.70;;;;;;;;;;5090168;28;20403;-18
2022/07/14 14:31:43;;;;;;;1.55;0.82;;;;;;;;;;5086713;28;20225;-18
2022/07/14 14:34:11;;;;;;;1.55;0.80;;;;;;;;;;5090275;28;20233;-18
2022/07/14 14:36:41;;;;;;;2.85;0.70;;;;;;;;;;5081282;28;20316;-18
2022/07/14 14:39:08;;;;;;;2.00;0.63;;;;;;;;;;5086653;28;20295;-18
2022/07/14 14:41:36;;;;;;;3.60;0.60;;;;;;;;;;5091641;28;20336;-17
2022/07/14 14:44:04;;;;;;;2.20;0.80;;;;;;;;;;5091795;28;20327;-18
2022/07/14 14:46:31;;;;;;;2.65;0.70;;;;;;;;;;5088701;28;20311;-18
2022/07/14 14:49:00;;;;;;;3.22;1.27;;;;;;;;;;5088432;28;20643;-18
2022/07/14 14:51:27;;;;;;;1.58;0.65;;;;;;;;;;5092311;28;20225;-18
2022/07/14 14:53:55;;;;;;;3.05;0.88;;;;;;;;;;5089160;28;20224;-18
2022/07/14 14:56:22;;;;;;;3.75;0.77;;;;;;;;;;5091319;28;20235;-18
2022/07/14 14:58:50;;;;;;;3.50;0.82;;;;;;;;;;5092326;28;20713;-18
2022/07/14 15:01:17;;;;;;;1.95;0.70;;;;;;;;;;5091708;28;20249;-18
2022/07/14 15:03:47;;;;;;;2.78;0.90;;;;;;;;;;5092276;28;20236;-18
2022/07/14 15:06:19;;;;;;;3.67;1.02;;;;;;;;;;5090520;28;20229;-16
2022/07/14 15:08:46;;;;;;;2.67;0.93;;;;;;;;;;5089831;28;20838;-17